METAR Data
IDs: Format: Raw Decoded Include TAF

Data at: 1330 UTC 07 Oct 2022

ENRY 071320Z 21020G33KT 9999 BKN014 14/11 Q1003 TEMPO BKN015